Worden, Montana
Current Conditions -  °F | °C
As of 4:01 AM on Thursday 27 Nov 2014 (Local Time) from KBIL Reporting Station
Light Fog Light Fog  
Wind Chill: 27°   Ceiling: 100
Heat Index: 27°   Visibility: 2mi
Dew Point: 26°   Wind: 0mph
Humidity: 96%   Direction: NA
Pressure: 30.01"   Gusts: NA
Location:  45.96°N, 108.16°W
Report Text: KBIL 271101Z 00000KT 2SM R10L/2600VP6000FT BCFG BKN001 OVC110 M03/M03 A3001 RMK AO2 VIS 1V3 BCFG ALQDS T10281033 $
Loading
Personal Weather Stations






























Interactive Weather Map New forecast layout! Learn more

10-Day Weather Forecast

Advertisements
Track Severe Weather on mobile